KSUW/SUW METAR and TAF weather

Enter ICAO airport designator
Station Type Date Time Source
KSUW METAR 2022/06/27 17:15 UTC NOAA

KSUW 271715Z AUTO 23005KT 10SM CLR 22/08 A3020 RMK AO2 T02160084


Station Type Date Time Source
KSUW Decoded METAR 2022/06/27 17:15 UTC NOAA

Superior, Richard I. Bong Airport, WI, United States (KSUW) 46-41-23N 092-05-41W
Jun 27, 2022 - 01:15 PM EDT / 2022.06.27 1715 UTC
Wind: from the SW (230 degrees) at 6 MPH (5 KT):0
Visibility: 10 mile(s):0
Sky conditions: clear
Temperature: 70.9 F (21.6 C)
Dew Point: 47.1 F (8.4 C)
Relative Humidity: 42%
Pressure (altimeter): 30.2 in. Hg (1022 hPa)
ob: KSUW 271715Z AUTO 23005KT 10SM CLR 22/08 A3020 RMK AO2 T02160084
cycle: 17

Station Type Date Time Source
KSUW TAF UTC NOAA

Error!

Example: see airport list